Time;durP1;ratioP1;P1;durP2;ratioP2;P2;SDS_P1;SDS_P2;PMS_P1;PMS_P2;Temp;Humidity;BMP_temperature;BMP_pressure;BME280_temperature;BME280_humidity;BME280_pressure;Samples;Min_cycle;Max_cycle;Signal;HPM_P1;HPM_P2
2022/12/29 00:00:34;;;;;;;1.80;1.60;;;5.00;99.90;;;;;;5048634;28;20458;-84
2022/12/29 00:03:01;;;;;;;1.70;1.57;;;5.00;99.90;;;;;;5049457;28;20546;-79
2022/12/29 00:05:28;;;;;;;1.50;1.40;;;4.90;99.90;;;;;;5048443;28;20550;-84
2022/12/29 00:07:56;;;;;;;1.30;1.20;;;4.90;99.90;;;;;;5048857;28;20455;-83
2022/12/29 00:10:23;;;;;;;1.93;1.60;;;5.10;99.90;;;;;;5040061;28;20826;-85
2022/12/29 00:15:39;;;;;;;2.13;1.40;;;5.10;99.90;;;;;;5027822;28;20486;-80
2022/12/29 00:18:07;;;;;;;1.37;1.10;;;5.10;99.90;;;;;;5048880;28;20471;-80
2022/12/29 00:44:04;;;;;;;1.20;1.10;;;5.20;99.90;;;;;;5047775;28;20469;-81
2022/12/29 00:45:36;;;;;;;1.87;1.00;;;5.20;99.90;;;;;;5040598;28;20549;-81
2022/12/29 00:48:03;;;;;;;1.70;1.17;;;5.30;99.90;;;;;;5041886;28;20575;-79
2022/12/29 00:50:30;;;;;;;2.30;1.70;;;5.20;99.90;;;;;;5042651;28;20423;-76
2022/12/29 00:53:05;;;;;;;1.50;1.40;;;5.20;99.90;;;;;;5048227;28;20458;-94
2022/12/29 00:55:37;;;;;;;1.03;0.93;;;5.30;99.90;;;;;;5040226;28;21017;-77
2022/12/29 00:58:04;;;;;;;1.63;1.30;;;5.20;99.90;;;;;;5039607;28;20439;-78
2022/12/29 01:03:12;;;;;;;1.37;1.20;;;5.20;99.90;;;;;;5049629;28;20450;-81
2022/12/29 01:05:39;;;;;;;1.73;1.23;;;5.10;99.90;;;;;;5050270;28;20447;-79
2022/12/29 01:08:06;;;;;;;1.27;1.17;;;5.10;99.90;;;;;;5043147;28;20947;-78
2022/12/29 01:10:41;;;;;;;1.20;1.10;;;6.30;99.90;;;;;;5039640;28;20478;-78
2022/12/29 01:13:09;;;;;;;1.67;1.27;;;5.10;99.90;;;;;;5040285;28;20524;-82
2022/12/29 01:15:36;;;;;;;1.30;1.20;;;5.20;99.90;;;;;;5041628;28;20482;-79
2022/12/29 01:18:03;;;;;;;1.30;1.20;;;5.10;99.90;;;;;;5043125;28;20489;-80
2022/12/29 01:23:10;;;;;;;1.53;1.20;;;5.00;99.90;;;;;;5039567;28;20442;-79
2022/12/29 01:25:39;;;;;;;1.50;1.07;;;5.00;99.90;;;;;;5039506;28;21647;-80
2022/12/29 01:28:06;;;;;;;1.57;1.17;;;5.00;99.90;;;;;;5039501;28;20486;-83
2022/12/29 01:30:35;;;;;;;1.67;1.20;;;5.00;99.90;;;;;;5038872;28;20504;-79
2022/12/29 01:33:02;;;;;;;1.30;1.13;;;5.00;99.90;;;;;;5040505;28;20474;-79
2022/12/29 01:35:30;;;;;;;1.10;1.00;;;5.00;99.90;;;;;;5038543;28;20982;-79
2022/12/29 01:37:56;;;;;;;1.27;1.10;;;5.10;99.90;;;;;;5039942;28;20724;-81
2022/12/29 01:40:26;;;;;;;1.20;1.00;;;5.00;99.90;;;;;;5038398;28;20450;-80
2022/12/29 01:42:55;;;;;;;1.33;1.00;;;5.00;99.90;;;;;;5043092;28;20532;-80
2022/12/29 01:45:22;;;;;;;1.73;1.17;;;5.00;99.90;;;;;;5049006;28;20540;-79
2022/12/29 01:47:53;;;;;;;1.10;0.97;;;5.10;99.90;;;;;;5050018;28;20513;-79
2022/12/29 01:50:26;;;;;;;1.40;1.20;;;6.20;99.90;;;;;;5050351;28;20515;-79
2022/12/29 01:52:59;;;;;;;3.57;1.10;;;5.00;99.90;;;;;;5049387;28;20498;-79
2022/12/29 01:55:27;;;;;;;1.80;1.00;;;5.20;99.90;;;;;;5049803;28;20933;-83
2022/12/29 01:58:00;;;;;;;1.33;1.10;;;5.30;99.90;;;;;;5049049;28;20990;-78
2022/12/29 02:00:27;;;;;;;1.07;0.93;;;5.20;99.90;;;;;;5048687;28;20473;-81
2022/12/29 02:02:55;;;;;;;1.30;1.20;;;5.20;99.90;;;;;;5048960;28;20502;-78
2022/12/29 02:05:29;;;;;;;1.10;1.00;;;5.20;99.90;;;;;;5049087;28;20646;-78
2022/12/29 02:08:02;;;;;;;1.10;1.00;;;5.20;99.90;;;;;;5049450;28;20871;-79
2022/12/29 02:10:33;;;;;;;1.10;1.00;;;5.30;99.90;;;;;;5049254;28;20836;-78
2022/12/29 02:13:01;;;;;;;1.10;1.00;;;5.30;99.90;;;;;;5050107;28;20554;-79
2022/12/29 02:15:41;;;;;;;1.10;0.90;;;5.90;99.90;;;;;;5061667;28;20501;-80
2022/12/29 02:18:21;;;;;;;1.20;1.10;;;5.20;99.90;;;;;;5047699;28;20470;-83
2022/12/29 02:24:25;;;;;;;2.70;1.27;;;5.30;99.90;;;;;;5059781;28;20977;-80
2022/12/29 02:27:24;;;;;;;1.73;1.17;;;5.30;99.90;;;;;;5049320;28;20810;-77
2022/12/29 02:30:19;;;;;;;1.20;1.10;;;5.30;99.90;;;;;;5048809;28;20957;-78
2022/12/29 02:32:55;;;;;;;1.20;0.90;;;5.30;99.90;;;;;;5032438;28;20482;-79
2022/12/29 02:35:33;;;;;;;1.47;1.03;;;5.40;99.90;;;;;;5048499;28;20501;-84
2022/12/29 02:38:13;;;;;;;1.10;1.00;;;5.50;99.90;;;;;;5048607;28;20966;-83
2022/12/29 02:40:49;;;;;;;1.27;1.00;;;5.50;99.90;;;;;;5049473;28;20455;-77
2022/12/29 02:43:34;;;;;;;1.53;1.10;;;5.50;99.90;;;;;;5048801;28;20497;-80
2022/12/29 02:46:11;;;;;;;1.80;1.10;;;5.50;99.90;;;;;;5048890;28;20533;-81
2022/12/29 02:48:46;;;;;;;1.17;1.07;;;5.60;99.90;;;;;;5028648;28;20997;-79
2022/12/29 02:51:19;;;;;;;1.40;1.00;;;5.50;99.90;;;;;;5041511;28;20523;-80
2022/12/29 02:56:31;;;;;;;1.07;0.97;;;5.60;99.90;;;;;;5048330;28;20481;-81
2022/12/29 02:59:00;;;;;;;1.90;1.00;;;5.60;99.90;;;;;;5048559;28;20890;-81
2022/12/29 03:01:38;;;;;;;1.80;1.27;;;5.60;99.90;;;;;;5049051;28;20446;-82
2022/12/29 03:04:23;;;;;;;1.10;1.00;;;5.50;99.90;;;;;;5048827;28;20472;-80
2022/12/29 03:06:57;;;;;;;1.70;1.00;;;5.60;99.90;;;;;;5044964;28;20492;-78
2022/12/29 03:09:37;;;;;;;1.30;1.10;;;5.60;99.90;;;;;;5048331;28;20976;-81
2022/12/29 03:12:15;;;;;;;1.63;1.20;;;5.70;99.90;;;;;;5048334;28;20482;-79
2022/12/29 03:17:48;;;;;;;2.13;1.10;;;5.60;99.90;;;;;;5048504;28;20489;-77
2022/12/29 03:20:23;;;;;;;2.47;1.20;;;5.60;99.90;;;;;;5049739;28;20453;-78
2022/12/29 03:22:52;;;;;;;1.20;1.07;;;5.70;99.90;;;;;;5047757;28;20458;-79
2022/12/29 03:25:24;;;;;;;1.57;1.47;;;5.70;99.90;;;;;;5048750;28;20509;-80
2022/12/29 03:27:56;;;;;;;1.10;1.00;;;5.80;99.90;;;;;;5048127;28;20979;-78
2022/12/29 03:30:24;;;;;;;1.70;1.10;;;5.90;99.90;;;;;;5048456;28;20446;-81
2022/12/29 03:32:54;;;;;;;1.30;1.20;;;6.00;99.90;;;;;;5048058;28;20478;-77
2022/12/29 03:35:26;;;;;;;1.60;1.20;;;6.00;99.90;;;;;;5048142;28;20497;-78
2022/12/29 03:37:59;;;;;;;1.97;1.13;;;6.10;99.90;;;;;;5047135;28;20446;-77
2022/12/29 03:40:28;;;;;;;1.33;1.10;;;6.10;99.90;;;;;;5048346;28;20435;-77
2022/12/29 03:43:02;;;;;;;1.10;1.00;;;6.10;99.90;;;;;;5048387;28;20482;-77
2022/12/29 03:45:29;;;;;;;2.30;1.07;;;5.90;99.90;;;;;;5048143;28;20450;-78
2022/12/29 03:47:56;;;;;;;2.00;1.20;;;6.10;99.90;;;;;;5047666;28;20514;-78
2022/12/29 03:50:25;;;;;;;1.80;0.90;;;6.10;99.90;;;;;;5049943;28;20508;-79
2022/12/29 03:52:53;;;;;;;2.40;1.67;;;5.70;99.90;;;;;;5052022;28;20469;-78
2022/12/29 03:55:20;;;;;;;2.03;1.60;;;6.20;99.90;;;;;;5051398;28;20469;-78
2022/12/29 03:57:47;;;;;;;1.73;1.20;;;6.20;99.90;;;;;;5050627;28;20490;-80
2022/12/29 04:00:15;;;;;;;2.03;1.00;;;6.20;99.90;;;;;;5051407;28;20482;-79
2022/12/29 04:02:47;;;;;;;1.23;1.03;;;6.10;99.90;;;;;;5052501;28;20524;-80
2022/12/29 04:05:14;;;;;;;1.30;1.20;;;6.10;99.90;;;;;;5051294;28;20454;-77
2022/12/29 04:07:42;;;;;;;1.60;1.40;;;6.10;99.90;;;;;;5051622;28;21021;-78
2022/12/29 04:10:10;;;;;;;1.20;1.10;;;6.20;99.90;;;;;;5051063;28;20554;-78
2022/12/29 04:15:17;;;;;;;1.20;1.03;;;6.20;99.90;;;;;;5050662;28;20473;-76
2022/12/29 04:17:44;;;;;;;1.17;1.07;;;6.10;99.90;;;;;;5051177;28;20565;-77
2022/12/29 04:23:01;;;;;;;1.37;1.10;;;6.20;99.90;;;;;;5051444;28;20972;-79
2022/12/29 04:25:29;;;;;;;1.33;1.10;;;6.20;99.90;;;;;;5051273;28;20462;-78
2022/12/29 04:27:56;;;;;;;1.40;1.27;;;6.20;99.90;;;;;;5051964;28;20474;-77
2022/12/29 04:30:23;;;;;;;2.33;1.30;;;6.10;99.90;;;;;;5050638;28;20477;-79
2022/12/29 04:32:54;;;;;;;1.43;1.10;;;6.40;99.90;;;;;;5051340;28;20482;-77
2022/12/29 04:35:21;;;;;;;1.43;0.97;;;6.30;99.90;;;;;;5050757;28;20459;-82
2022/12/29 04:37:47;;;;;;;1.23;1.13;;;6.30;99.90;;;;;;5051058;28;21073;-77
2022/12/29 04:40:16;;;;;;;1.20;1.00;;;6.30;99.90;;;;;;5049671;28;20882;-78
2022/12/29 04:42:50;;;;;;;1.30;1.20;;;6.40;99.90;;;;;;5047860;28;20538;-79
2022/12/29 04:45:18;;;;;;;1.00;0.90;;;6.30;99.90;;;;;;5051077;28;20461;-78
2022/12/29 04:47:45;;;;;;;0.93;0.90;;;6.20;99.90;;;;;;5039366;28;20562;-81
2022/12/29 04:50:12;;;;;;;1.67;1.10;;;6.20;99.90;;;;;;5050207;28;20482;-79
2022/12/29 04:52:45;;;;;;;1.20;1.00;;;6.30;99.90;;;;;;5050620;28;20522;-78
2022/12/29 04:55:12;;;;;;;1.50;1.20;;;6.30;99.90;;;;;;5030727;28;20544;-77
2022/12/29 04:57:40;;;;;;;1.27;1.17;;;6.30;99.90;;;;;;5044166;28;20482;-83
2022/12/29 05:00:09;;;;;;;3.33;1.40;;;6.40;99.90;;;;;;5050249;28;20466;-81
2022/12/29 05:02:40;;;;;;;1.00;0.90;;;6.30;99.90;;;;;;5049833;28;20947;-77
2022/12/29 05:05:08;;;;;;;1.00;0.90;;;6.40;99.90;;;;;;5043205;28;20485;-81
2022/12/29 05:07:35;;;;;;;1.93;1.10;;;6.40;99.90;;;;;;5049973;28;20533;-78
2022/12/29 05:10:01;;;;;;;1.10;1.00;;;6.40;99.90;;;;;;5050047;28;20451;-81
2022/12/29 05:12:34;;;;;;;2.03;1.10;;;6.40;99.90;;;;;;5050030;28;20471;-81
2022/12/29 05:15:03;;;;;;;1.93;1.10;;;6.40;99.90;;;;;;5050538;28;20549;-78
2022/12/29 05:17:30;;;;;;;1.13;1.03;;;6.40;99.90;;;;;;5049470;28;20485;-77
2022/12/29 05:19:57;;;;;;;1.17;1.07;;;6.40;99.90;;;;;;5050299;28;20540;-78
2022/12/29 05:22:24;;;;;;;1.47;1.10;;;6.30;99.90;;;;;;5048767;28;20485;-77
2022/12/29 05:24:53;;;;;;;1.90;1.00;;;6.30;99.90;;;;;;5049593;28;20844;-78
2022/12/29 05:27:20;;;;;;;1.30;1.20;;;6.30;99.90;;;;;;5050153;28;20454;-81
2022/12/29 05:29:47;;;;;;;1.30;1.17;;;6.30;99.90;;;;;;5050115;28;20482;-79
2022/12/29 05:32:20;;;;;;;1.13;1.00;;;6.30;99.90;;;;;;5049262;28;20527;-78
2022/12/29 05:34:47;;;;;;;3.60;1.27;;;6.40;99.90;;;;;;5049208;28;20831;-78
2022/12/29 05:37:14;;;;;;;1.43;1.20;;;6.40;99.90;;;;;;5049834;28;20525;-76
2022/12/29 05:39:41;;;;;;;1.40;1.30;;;6.40;99.90;;;;;;5050503;28;20482;-79
2022/12/29 05:42:08;;;;;;;1.33;1.17;;;6.30;99.90;;;;;;5050447;28;20489;-77
2022/12/29 05:44:35;;;;;;;1.00;0.90;;;6.40;99.90;;;;;;5049685;28;20538;-80
2022/12/29 05:47:17;;;;;;;1.00;0.90;;;6.50;99.90;;;;;;5049306;28;20525;-76
2022/12/29 05:49:45;;;;;;;1.20;0.90;;;6.40;99.90;;;;;;5049534;28;20451;-77
2022/12/29 05:52:12;;;;;;;1.20;1.10;;;6.30;99.90;;;;;;5049990;28;20442;-77
2022/12/29 05:54:39;;;;;;;1.63;1.47;;;6.40;99.90;;;;;;5049043;28;20550;-80
2022/12/29 05:57:06;;;;;;;5.93;1.20;;;6.40;99.90;;;;;;5049462;28;20561;-77
2022/12/29 05:59:34;;;;;;;3.20;1.13;;;6.40;99.90;;;;;;5050531;28;20474;-78
2022/12/29 06:02:01;;;;;;;5.73;1.17;;;6.40;99.90;;;;;;5050099;28;20458;-76
2022/12/29 06:04:28;;;;;;;1.67;1.50;;;6.30;99.90;;;;;;5050221;28;20492;-78
2022/12/29 06:06:57;;;;;;;2.80;1.13;;;6.50;99.90;;;;;;5049935;28;20469;-77
2022/12/29 06:09:29;;;;;;;1.80;1.10;;;6.40;99.90;;;;;;5051920;28;21183;-77
2022/12/29 06:11:56;;;;;;;1.23;1.13;;;6.60;99.90;;;;;;5057008;28;20534;-78
2022/12/29 06:14:23;;;;;;;1.63;1.33;;;6.40;99.90;;;;;;5055554;28;20962;-76
2022/12/29 06:16:49;;;;;;;1.37;1.27;;;6.40;99.90;;;;;;5057171;28;20474;-77
2022/12/29 06:19:16;;;;;;;2.23;1.30;;;6.40;99.90;;;;;;5056438;28;20449;-76
2022/12/29 06:21:52;;;;;;;3.27;1.63;;;6.50;99.90;;;;;;5055746;28;20448;-77
2022/12/29 06:24:20;;;;;;;1.60;1.20;;;6.50;99.90;;;;;;5049289;28;20445;-76
2022/12/29 06:26:47;;;;;;;2.67;1.47;;;6.40;99.90;;;;;;5042339;28;20528;-76
2022/12/29 06:29:16;;;;;;;2.50;1.57;;;6.30;99.90;;;;;;5049836;28;20450;-76
2022/12/29 06:31:45;;;;;;;6.10;1.53;;;6.40;99.90;;;;;;5049502;28;21012;-76
2022/12/29 06:34:21;;;;;;;1.53;1.43;;;6.30;99.90;;;;;;5049490;28;20545;-75
2022/12/29 06:36:48;;;;;;;1.60;1.50;;;6.10;99.90;;;;;;5049223;28;20521;-76
2022/12/29 06:39:15;;;;;;;1.20;1.10;;;6.20;99.90;;;;;;5049887;28;20542;-76
2022/12/29 06:41:43;;;;;;;1.70;1.60;;;6.30;99.90;;;;;;5053671;28;20545;-77
2022/12/29 06:44:11;;;;;;;1.63;1.53;;;6.50;99.90;;;;;;5056018;28;20443;-76
2022/12/29 06:46:38;;;;;;;2.47;1.40;;;6.20;99.90;;;;;;5056908;28;20673;-76
2022/12/29 06:49:05;;;;;;;2.03;1.57;;;6.30;99.90;;;;;;5054194;28;20541;-77
2022/12/29 06:51:32;;;;;;;1.30;1.20;;;6.10;99.90;;;;;;5056910;28;20473;-76
2022/12/29 06:54:22;;;;;;;2.50;1.70;;;6.30;99.90;;;;;;5058653;28;20552;-84
2022/12/29 06:56:51;;;;;;;2.23;1.30;;;6.10;99.90;;;;;;5050139;28;20496;-80
2022/12/29 06:59:19;;;;;;;1.53;1.20;;;6.30;99.90;;;;;;5050379;28;20450;-77
2022/12/29 07:01:45;;;;;;;1.43;1.00;;;6.30;99.90;;;;;;5049342;28;20548;-77
2022/12/29 07:04:16;;;;;;;2.23;1.30;;;6.30;99.90;;;;;;5049182;28;20454;-77
2022/12/29 07:06:43;;;;;;;1.50;1.13;;;6.30;99.90;;;;;;5047809;28;20431;-77
2022/12/29 07:09:11;;;;;;;1.60;1.50;;;6.30;99.90;;;;;;5040703;28;20490;-79
2022/12/29 07:11:38;;;;;;;1.90;1.50;;;6.40;99.90;;;;;;5031031;28;20539;-78
2022/12/29 07:14:06;;;;;;;1.40;1.30;;;6.30;99.90;;;;;;5043537;28;20464;-77
2022/12/29 07:16:34;;;;;;;2.27;1.40;;;6.30;99.90;;;;;;5045893;28;20475;-77
2022/12/29 07:19:01;;;;;;;1.77;1.50;;;6.30;99.90;;;;;;5048119;28;20450;-77
2022/12/29 07:21:27;;;;;;;1.30;1.20;;;6.40;99.90;;;;;;5045773;28;20467;-81
2022/12/29 07:23:55;;;;;;;1.50;1.20;;;6.50;99.90;;;;;;5031600;28;20477;-77
2022/12/29 07:26:29;;;;;;;3.40;1.43;;;6.30;99.90;;;;;;5034513;28;20463;-78
2022/12/29 07:28:56;;;;;;;1.53;1.40;;;6.50;99.90;;;;;;5052086;28;20458;-78
2022/12/29 07:31:24;;;;;;;1.80;1.20;;;6.40;99.90;;;;;;5052483;28;20470;-77
2022/12/29 07:33:51;;;;;;;3.70;1.50;;;6.40;99.90;;;;;;5052486;28;20798;-78
2022/12/29 07:36:22;;;;;;;1.20;1.10;;;6.60;99.90;;;;;;5053288;28;20458;-78
2022/12/29 07:38:49;;;;;;;2.60;1.50;;;6.40;99.90;;;;;;5052095;28;20532;-76
2022/12/29 07:41:16;;;;;;;1.30;1.20;;;6.50;99.90;;;;;;5052499;28;20482;-77
2022/12/29 07:43:43;;;;;;;1.60;1.30;;;6.60;99.90;;;;;;5051153;28;20477;-80
2022/12/29 07:46:10;;;;;;;2.53;1.50;;;6.70;99.90;;;;;;5052028;28;20505;-78
2022/12/29 07:48:40;;;;;;;3.10;1.57;;;6.70;99.90;;;;;;5052307;28;20557;-78
2022/12/29 07:51:07;;;;;;;1.37;1.20;;;6.80;99.90;;;;;;5052505;28;20557;-76
2022/12/29 07:53:34;;;;;;;3.10;1.80;;;6.90;99.90;;;;;;5052052;28;20455;-78
2022/12/29 07:56:01;;;;;;;3.57;1.50;;;6.90;99.90;;;;;;5052176;28;20473;-77
2022/12/29 07:58:28;;;;;;;2.70;1.83;;;7.00;99.90;;;;;;5050730;28;20478;-77
2022/12/29 08:00:55;;;;;;;2.07;1.60;;;7.00;99.90;;;;;;5051323;28;20712;-79
2022/12/29 08:03:26;;;;;;;2.80;1.40;;;7.10;99.90;;;;;;5054544;28;20442;-80
2022/12/29 08:05:54;;;;;;;3.37;1.40;;;7.30;99.90;;;;;;5060374;28;20497;-77
2022/12/29 08:08:22;;;;;;;1.70;1.23;;;7.30;99.90;;;;;;5054972;28;20450;-80
2022/12/29 08:10:49;;;;;;;1.40;1.30;;;7.20;99.90;;;;;;5043004;28;20467;-79
2022/12/29 08:13:16;;;;;;;2.23;1.30;;;7.20;99.90;;;;;;5040770;28;20840;-78
2022/12/29 08:18:23;;;;;;;1.67;1.57;;;7.20;99.90;;;;;;5049720;28;20505;-76
2022/12/29 08:20:50;;;;;;;1.80;1.30;;;7.30;99.90;;;;;;5052280;28;21017;-80
2022/12/29 08:23:18;;;;;;;2.57;1.50;;;7.30;99.90;;;;;;5053675;28;20481;-79
2022/12/29 08:25:47;;;;;;;2.80;1.70;;;7.30;99.90;;;;;;5050026;28;20499;-81
2022/12/29 08:28:14;;;;;;;1.90;1.33;;;7.40;99.90;;;;;;5047300;28;20452;-79
2022/12/29 08:30:41;;;;;;;1.53;1.30;;;7.40;99.90;;;;;;5045053;28;20997;-81
2022/12/29 08:33:08;;;;;;;2.53;1.30;;;7.50;99.90;;;;;;5042395;28;20611;-77
2022/12/29 08:35:35;;;;;;;2.00;1.50;;;7.50;99.90;;;;;;5047008;28;20490;-76
2022/12/29 08:38:05;;;;;;;1.83;1.50;;;7.60;99.90;;;;;;5051676;28;20513;-78
2022/12/29 08:40:33;;;;;;;1.77;1.23;;;7.80;99.90;;;;;;5051972;28;20482;-76
2022/12/29 08:43:00;;;;;;;2.83;1.80;;;7.90;99.90;;;;;;5051233;28;20733;-77
2022/12/29 08:45:27;;;;;;;1.70;1.47;;;8.10;99.90;;;;;;5050593;28;20494;-76
2022/12/29 08:47:55;;;;;;;1.23;1.13;;;8.10;99.90;;;;;;5051455;28;20505;-77
2022/12/29 08:50:22;;;;;;;2.17;1.50;;;8.20;99.90;;;;;;5051873;28;20443;-76
2022/12/29 08:52:49;;;;;;;1.80;1.50;;;8.20;99.90;;;;;;5052176;28;20500;-77
2022/12/29 08:55:16;;;;;;;2.60;1.80;;;8.40;99.90;;;;;;5052175;28;20478;-75
2022/12/29 08:57:49;;;;;;;5.03;1.40;;;8.40;99.90;;;;;;5044683;28;20498;-76
2022/12/29 09:00:16;;;;;;;2.80;1.87;;;8.50;99.90;;;;;;5047938;28;21004;-76
2022/12/29 09:02:43;;;;;;;1.60;1.50;;;8.70;99.90;;;;;;5050825;28;20458;-75
2022/12/29 09:05:10;;;;;;;3.40;1.40;;;8.50;99.90;;;;;;5054501;28;20874;-76
2022/12/29 09:07:37;;;;;;;1.23;1.13;;;8.70;99.90;;;;;;5054430;28;20522;-76
2022/12/29 09:10:06;;;;;;;1.83;1.20;;;8.70;99.90;;;;;;5054474;28;20997;-76
2022/12/29 09:12:33;;;;;;;1.70;1.40;;;8.60;99.90;;;;;;5055411;28;20439;-76
2022/12/29 09:15:01;;;;;;;2.10;1.40;;;8.70;99.90;;;;;;5053991;28;20450;-76
2022/12/29 09:17:44;;;;;;;2.10;1.40;;;8.90;99.90;;;;;;5054762;28;20498;-76
2022/12/29 09:20:12;;;;;;;1.77;1.30;;;9.00;99.90;;;;;;5034699;28;20482;-82
2022/12/29 09:22:44;;;;;;;1.50;1.40;;;9.00;99.90;;;;;;5035318;28;20448;-76
2022/12/29 09:25:11;;;;;;;1.70;1.50;;;9.00;99.90;;;;;;5053937;28;20463;-77
2022/12/29 09:27:39;;;;;;;1.60;1.37;;;9.10;99.90;;;;;;5054937;28;20447;-77
2022/12/29 09:30:10;;;;;;;1.60;1.30;;;9.30;99.90;;;;;;5053506;28;20447;-76
2022/12/29 09:32:37;;;;;;;1.57;1.30;;;9.40;99.90;;;;;;5050630;28;20520;-75
2022/12/29 09:37:45;;;;;;;3.13;2.00;;;9.60;99.90;;;;;;5054408;28;21020;-76
2022/12/29 09:40:26;;;;;;;2.10;1.20;;;9.60;99.90;;;;;;5049936;28;20498;-76
2022/12/29 09:43:11;;;;;;;2.23;1.53;;;9.80;99.90;;;;;;5054609;28;20469;-77
2022/12/29 09:45:45;;;;;;;2.03;1.53;;;9.70;99.90;;;;;;5047395;28;20467;-76
2022/12/29 09:48:18;;;;;;;2.40;1.53;;;9.70;99.90;;;;;;5042719;28;20518;-76
2022/12/29 09:50:50;;;;;;;4.67;1.27;;;9.40;99.90;;;;;;5052618;28;20486;-76
2022/12/29 09:53:22;;;;;;;3.93;1.67;;;9.60;99.90;;;;;;5050506;28;20485;-75
2022/12/29 09:55:53;;;;;;;3.30;1.47;;;9.50;99.90;;;;;;5050594;28;20492;-76
2022/12/29 09:58:25;;;;;;;1.47;1.20;;;9.50;99.90;;;;;;5049869;28;20486;-76
2022/12/29 10:00:59;;;;;;;1.53;1.30;;;9.60;99.90;;;;;;5050103;28;20474;-76
2022/12/29 10:03:37;;;;;;;3.23;1.30;;;9.50;99.90;;;;;;5049755;28;20454;-77
2022/12/29 10:06:12;;;;;;;2.70;1.57;;;9.50;99.90;;;;;;5049842;28;20465;-77
2022/12/29 10:08:43;;;;;;;1.10;0.90;;;9.60;99.90;;;;;;5049434;28;20507;-76
2022/12/29 10:11:25;;;;;;;2.17;1.40;;;9.60;99.90;;;;;;5049621;28;20526;-76
2022/12/29 10:14:10;;;;;;;1.50;1.17;;;9.60;99.90;;;;;;5036678;28;20500;-76
2022/12/29 10:16:48;;;;;;;2.00;1.50;;;9.60;99.90;;;;;;5049425;28;20473;-76
2022/12/29 10:19:34;;;;;;;1.10;1.00;;;9.60;99.90;;;;;;5049726;28;20510;-76
2022/12/29 10:22:10;;;;;;;1.90;1.63;;;9.70;99.90;;;;;;5049556;28;20459;-76
2022/12/29 10:24:40;;;;;;;1.30;1.10;;;9.70;99.90;;;;;;5049724;28;20861;-77
2022/12/29 10:27:16;;;;;;;1.43;1.33;;;9.80;99.90;;;;;;5049239;28;20532;-77
2022/12/29 10:29:49;;;;;;;1.70;1.60;;;9.80;99.90;;;;;;5041962;28;20988;-76
2022/12/29 10:32:26;;;;;;;1.90;1.67;;;9.90;99.90;;;;;;5049729;28;20434;-77
2022/12/29 10:34:58;;;;;;;1.87;1.30;;;9.80;99.90;;;;;;5049708;28;20450;-77
2022/12/29 10:37:33;;;;;;;3.00;1.60;;;10.00;99.90;;;;;;5048779;28;20458;-76
2022/12/29 10:40:02;;;;;;;1.57;1.17;;;10.10;99.90;;;;;;5049373;28;20492;-76
2022/12/29 10:42:33;;;;;;;1.50;1.40;;;10.00;99.90;;;;;;5049423;28;20793;-76
2022/12/29 10:45:02;;;;;;;1.80;1.70;;;10.00;99.90;;;;;;5049423;28;20439;-76
2022/12/29 10:47:35;;;;;;;7.30;1.67;;;10.10;99.90;;;;;;5053268;28;20478;-75
2022/12/29 10:50:07;;;;;;;2.13;1.50;;;10.10;99.90;;;;;;5055473;28;20471;-77
2022/12/29 10:55:22;;;;;;;2.27;1.67;;;10.20;99.90;;;;;;5059817;28;20462;-77
2022/12/29 10:57:50;;;;;;;3.03;1.40;;;10.20;99.90;;;;;;5053204;28;20451;-77
2022/12/29 11:00:20;;;;;;;1.80;1.40;;;10.00;99.90;;;;;;5052930;28;20442;-76
2022/12/29 11:03:28;;;;;;;2.53;1.37;;;10.00;99.90;;;;;;5053666;28;20571;-77
2022/12/29 11:06:02;;;;;;;3.10;1.60;;;10.10;99.90;;;;;;5046436;28;20570;-76
2022/12/29 11:08:33;;;;;;;2.13;1.50;;;10.20;99.90;;;;;;5053432;28;20542;-76
2022/12/29 11:11:02;;;;;;;2.30;1.27;;;10.40;99.90;;;;;;5053500;28;20442;-77
2022/12/29 11:13:30;;;;;;;2.50;1.83;;;10.40;99.90;;;;;;5052410;28;20443;-77
2022/12/29 11:16:03;;;;;;;3.53;1.70;;;10.60;99.90;;;;;;5052971;28;21022;-76
2022/12/29 11:18:37;;;;;;;3.53;1.33;;;10.70;99.90;;;;;;5052891;28;20514;-74
2022/12/29 11:21:07;;;;;;;3.03;2.30;;;10.70;99.90;;;;;;5053059;28;20525;-74
2022/12/29 11:23:36;;;;;;;2.60;1.90;;;11.10;99.90;;;;;;5052365;28;20475;-80
2022/12/29 11:26:20;;;;;;;2.90;1.50;;;11.20;99.90;;;;;;5052678;28;20796;-72
2022/12/29 11:31:41;;;;;;;5.70;1.50;;;11.90;99.90;;;;;;5050808;28;20457;-73
2022/12/29 11:34:21;;;;;;;1.73;1.40;;;12.30;99.90;;;;;;5050941;28;20446;-73
2022/12/29 11:36:48;;;;;;;2.13;1.43;;;12.40;99.90;;;;;;5038920;28;20467;-73
2022/12/29 11:39:28;;;;;;;1.80;1.43;;;12.60;99.90;;;;;;5042926;28;20578;-73
2022/12/29 11:41:55;;;;;;;3.33;1.03;;;12.90;99.90;;;;;;5029703;28;20435;-74
2022/12/29 11:44:23;;;;;;;1.50;1.23;;;13.10;99.90;;;;;;5032011;28;20861;-72
2022/12/29 11:46:52;;;;;;;2.63;1.40;;;13.40;99.90;;;;;;5032913;28;20451;-73
2022/12/29 11:49:30;;;;;;;1.30;1.20;;;13.10;99.90;;;;;;5033089;28;20943;-72
2022/12/29 11:51:57;;;;;;;1.40;1.00;;;13.20;99.90;;;;;;5039279;28;20454;-71
2022/12/29 11:54:28;;;;;;;3.93;1.20;;;13.30;99.90;;;;;;5046920;28;20803;-70
2022/12/29 11:57:17;;;;;;;1.20;1.00;;;13.40;99.90;;;;;;5035794;28;20835;-72
2022/12/29 12:02:45;;;;;;;1.47;1.07;;;14.00;99.60;;;;;;5031222;28;20962;-72
2022/12/29 12:05:26;;;;;;;2.00;1.50;;;13.50;99.50;;;;;;5030690;28;20553;-73
2022/12/29 12:08:05;;;;;;;4.30;1.73;;;13.80;99.90;;;;;;5030575;28;20550;-73
2022/12/29 12:10:44;;;;;;;1.70;1.60;;;14.00;99.90;;;;;;5043641;28;20501;-72
2022/12/29 12:13:26;;;;;;;2.93;1.20;;;13.70;99.80;;;;;;5049315;28;20503;-73
2022/12/29 12:15:58;;;;;;;3.00;1.60;;;13.90;99.80;;;;;;5037867;28;20463;-72
2022/12/29 12:21:32;;;;;;;3.33;1.50;;;14.40;98.70;;;;;;5040474;28;20459;-73
2022/12/29 12:24:25;;;;;;;2.67;1.40;;;13.50;99.60;;;;;;5042899;28;20447;-73
2022/12/29 12:26:59;;;;;;;1.80;1.20;;;13.70;99.40;;;;;;5038531;28;20474;-75
2022/12/29 12:29:32;;;;;;;1.87;1.50;;;13.90;99.70;;;;;;5039215;28;20470;-73
2022/12/29 12:32:10;;;;;;;2.03;1.07;;;13.80;99.90;;;;;;5040532;28;20470;-72
2022/12/29 12:34:45;;;;;;;1.60;1.20;;;14.00;99.90;;;;;;5040987;28;20438;-72
2022/12/29 12:37:34;;;;;;;1.73;1.40;;;14.20;99.90;;;;;;5039708;28;20536;-73
2022/12/29 12:40:26;;;;;;;1.97;1.20;;;14.00;99.90;;;;;;5040844;28;20475;-72
2022/12/29 12:43:05;;;;;;;1.77;1.30;;;14.70;99.90;;;;;;5043748;28;20588;-72
2022/12/29 12:45:49;;;;;;;1.50;1.20;;;14.30;99.90;;;;;;5050383;28;20447;-77
2022/12/29 12:48:37;;;;;;;1.70;1.07;;;14.20;99.90;;;;;;5050128;28;20512;-73
2022/12/29 12:51:15;;;;;;;3.20;1.10;;;14.10;99.90;;;;;;5050408;28;20473;-72
2022/12/29 12:54:01;;;;;;;1.83;1.23;;;13.70;99.90;;;;;;5049945;28;20503;-72
2022/12/29 12:56:59;;;;;;;1.83;1.10;;;13.60;99.90;;;;;;5049457;28;20515;-72
2022/12/29 12:59:41;;;;;;;2.40;1.53;;;13.40;99.90;;;;;;5039084;28;20478;-75
2022/12/29 13:02:34;;;;;;;1.20;1.10;;;13.30;99.90;;;;;;5045591;28;20463;-81
2022/12/29 13:05:33;;;;;;;1.60;1.27;;;13.10;99.90;;;;;;5060161;28;20258;-79
2022/12/29 13:08:31;;;;;;;1.83;1.40;;;13.20;99.90;;;;;;5043551;28;20435;-78
2022/12/29 13:11:09;;;;;;;1.43;1.17;;;13.00;99.90;;;;;;5044497;28;20850;-77
2022/12/29 13:13:56;;;;;;;1.53;1.17;;;12.90;99.90;;;;;;5040724;28;20495;-78
2022/12/29 13:19:24;;;;;;;2.23;1.20;;;12.90;99.90;;;;;;5045299;28;20499;-79
2022/12/29 13:22:02;;;;;;;2.60;1.27;;;13.00;99.90;;;;;;5042136;28;20527;-78
2022/12/29 13:24:34;;;;;;;3.10;1.50;;;13.00;99.90;;;;;;5039446;28;20443;-77
2022/12/29 13:27:22;;;;;;;2.47;1.20;;;13.10;99.90;;;;;;5041089;28;20438;-78
2022/12/29 13:30:00;;;;;;;1.80;1.37;;;12.90;99.90;;;;;;5050318;28;20482;-77
2022/12/29 13:38:25;;;;;;;2.37;1.27;;;12.80;99.90;;;;;;5041572;28;20985;-77
2022/12/29 13:40:56;;;;;;;1.83;1.40;;;12.80;99.90;;;;;;5048455;28;20561;-77
2022/12/29 13:43:25;;;;;;;2.00;1.30;;;12.80;99.90;;;;;;5048473;28;20442;-78
2022/12/29 13:46:05;;;;;;;2.07;1.63;;;12.50;99.90;;;;;;5049009;28;20459;-78
2022/12/29 13:48:40;;;;;;;2.10;1.53;;;12.50;99.90;;;;;;5049160;28;21066;-78
2022/12/29 13:51:09;;;;;;;1.70;1.60;;;12.40;99.90;;;;;;5049436;28;21047;-78
2022/12/29 13:53:47;;;;;;;1.77;1.40;;;12.30;99.90;;;;;;5049505;28;20466;-77
2022/12/29 13:56:24;;;;;;;4.27;1.60;;;12.40;99.90;;;;;;5049879;28;20439;-77
2022/12/29 13:58:59;;;;;;;1.60;1.20;;;12.40;99.90;;;;;;5049235;28;20803;-78
2022/12/29 14:01:34;;;;;;;2.50;1.33;;;12.40;99.90;;;;;;5048671;28;20953;-77
2022/12/29 14:04:03;;;;;;;2.83;1.30;;;12.40;99.90;;;;;;5048718;28;20458;-77
2022/12/29 14:09:33;;;;;;;1.83;1.23;;;12.30;99.90;;;;;;5028834;28;20475;-77
2022/12/29 14:12:00;;;;;;;3.00;2.77;;;12.40;99.90;;;;;;5028325;28;20443;-76
2022/12/29 14:14:30;;;;;;;4.77;2.10;;;12.20;99.90;;;;;;5028897;28;20527;-77
2022/12/29 14:17:12;;;;;;;2.40;1.30;;;12.20;99.90;;;;;;5031337;28;20538;-76
2022/12/29 14:19:44;;;;;;;1.47;1.30;;;12.20;99.90;;;;;;5049346;28;20482;-77
2022/12/29 14:22:14;;;;;;;2.20;1.57;;;12.10;99.90;;;;;;5032320;28;20992;-77
2022/12/29 14:24:44;;;;;;;2.30;1.93;;;12.10;99.90;;;;;;5050074;28;20524;-77
2022/12/29 14:27:45;;;;;;;3.83;2.50;;;12.10;99.90;;;;;;5048542;28;20664;-76
2022/12/29 14:30:54;;;;;;;2.10;1.80;;;11.90;99.90;;;;;;5048285;28;20503;-78
2022/12/29 14:33:31;;;;;;;2.97;1.83;;;11.90;99.90;;;;;;5031217;28;20459;-77